sensor_id;sensor_type;location;lat;lon;timestamp;pressure;altitude;pressure_sealevel;temperature;humidity
76730;BME280;65653;53.106;18.046;2022-12-29T00:00:06;100299.59;;;4.99;91.04
76730;BME280;65653;53.106;18.046;2022-12-29T00:02:33;100294.55;;;4.98;91.02
76730;BME280;65653;53.106;18.046;2022-12-29T00:05:00;100293.63;;;4.97;91.15
76730;BME280;65653;53.106;18.046;2022-12-29T00:07:26;100288.98;;;4.94;91.19
76730;BME280;65653;53.106;18.046;2022-12-29T00:09:53;100283.67;;;4.94;91.30
76730;BME280;65653;53.106;18.046;2022-12-29T00:12:19;100278.37;;;4.96;91.23
76730;BME280;65653;53.106;18.046;2022-12-29T00:14:46;100271.90;;;4.95;91.38
76730;BME280;65653;53.106;18.046;2022-12-29T00:17:31;100275.66;;;4.95;91.42
76730;BME280;65653;53.106;18.046;2022-12-29T00:19:58;100275.96;;;4.96;91.64
76730;BME280;65653;53.106;18.046;2022-12-29T00:22:43;100277.58;;;4.96;91.63
76730;BME280;65653;53.106;18.046;2022-12-29T00:25:28;100271.14;;;4.96;91.73
76730;BME280;65653;53.106;18.046;2022-12-29T00:28:23;100269.59;;;4.96;91.96
76730;BME280;65653;53.106;18.046;2022-12-29T00:31:11;100269.40;;;4.94;92.10
76730;BME280;65653;53.106;18.046;2022-12-29T00:33:56;100266.59;;;4.95;92.13
76730;BME280;65653;53.106;18.046;2022-12-29T00:36:43;100263.82;;;4.96;92.19
76730;BME280;65653;53.106;18.046;2022-12-29T00:39:12;100267.26;;;4.97;92.17
76730;BME280;65653;53.106;18.046;2022-12-29T00:42:03;100265.31;;;4.98;92.26
76730;BME280;65653;53.106;18.046;2022-12-29T00:44:49;100264.94;;;4.98;92.42
76730;BME280;65653;53.106;18.046;2022-12-29T00:47:15;100261.64;;;4.95;92.43
76730;BME280;65653;53.106;18.046;2022-12-29T00:49:42;100261.13;;;4.94;92.44
76730;BME280;65653;53.106;18.046;2022-12-29T00:52:11;100259.79;;;4.95;92.40
76730;BME280;65653;53.106;18.046;2022-12-29T00:54:39;100260.21;;;4.95;92.32
76730;BME280;65653;53.106;18.046;2022-12-29T00:57:08;100259.71;;;4.96;92.26
76730;BME280;65653;53.106;18.046;2022-12-29T00:59:37;100261.61;;;4.95;92.19
76730;BME280;65653;53.106;18.046;2022-12-29T01:02:04;100265.21;;;4.94;92.26
76730;BME280;65653;53.106;18.046;2022-12-29T01:04:31;100268.34;;;4.94;92.21
76730;BME280;65653;53.106;18.046;2022-12-29T01:06:58;100269.60;;;4.96;92.25
76730;BME280;65653;53.106;18.046;2022-12-29T01:09:24;100270.64;;;4.97;92.21
76730;BME280;65653;53.106;18.046;2022-12-29T01:12:10;100269.90;;;4.96;92.08
76730;BME280;65653;53.106;18.046;2022-12-29T01:14:37;100274.40;;;4.95;91.99
76730;BME280;65653;53.106;18.046;2022-12-29T01:17:04;100276.81;;;4.98;91.92
76730;BME280;65653;53.106;18.046;2022-12-29T01:19:31;100270.61;;;4.99;91.87
76730;BME280;65653;53.106;18.046;2022-12-29T01:21:57;100261.64;;;4.99;91.88
76730;BME280;65653;53.106;18.046;2022-12-29T01:24:24;100257.84;;;4.99;91.83
76730;BME280;65653;53.106;18.046;2022-12-29T01:26:52;100254.77;;;4.99;91.74
76730;BME280;65653;53.106;18.046;2022-12-29T01:29:21;100259.91;;;4.97;91.79
76730;BME280;65653;53.106;18.046;2022-12-29T01:31:49;100260.82;;;4.96;91.70
76730;BME280;65653;53.106;18.046;2022-12-29T01:34:16;100259.89;;;4.94;91.61
76730;BME280;65653;53.106;18.046;2022-12-29T01:36:43;100256.61;;;4.92;91.64
76730;BME280;65653;53.106;18.046;2022-12-29T01:39:10;100253.16;;;4.89;91.71
76730;BME280;65653;53.106;18.046;2022-12-29T01:41:36;100249.73;;;4.89;91.74
76730;BME280;65653;53.106;18.046;2022-12-29T01:50:03;100238.96;;;4.90;91.71
76730;BME280;65653;53.106;18.046;2022-12-29T01:52:32;100240.95;;;4.90;91.66
76730;BME280;65653;53.106;18.046;2022-12-29T01:55:01;100238.90;;;4.94;91.53
76730;BME280;65653;53.106;18.046;2022-12-29T01:57:32;100227.60;;;4.96;91.41
76730;BME280;65653;53.106;18.046;2022-12-29T02:00:12;100221.34;;;5.00;91.12
76730;BME280;65653;53.106;18.046;2022-12-29T02:02:42;100214.83;;;4.99;90.99
76730;BME280;65653;53.106;18.046;2022-12-29T02:05:17;100205.52;;;4.99;90.94
76730;BME280;65653;53.106;18.046;2022-12-29T02:07:46;100203.42;;;5.01;90.80
76730;BME280;65653;53.106;18.046;2022-12-29T02:10:15;100199.49;;;5.03;90.75
76730;BME280;65653;53.106;18.046;2022-12-29T02:12:41;100199.77;;;5.04;90.70
76730;BME280;65653;53.106;18.046;2022-12-29T02:15:08;100192.92;;;5.07;90.66
76730;BME280;65653;53.106;18.046;2022-12-29T02:23:24;100177.41;;;5.11;90.20
76730;BME280;65653;53.106;18.046;2022-12-29T02:26:22;100175.73;;;5.13;90.18
76730;BME280;65653;53.106;18.046;2022-12-29T02:31:59;100163.59;;;5.19;89.42
76730;BME280;65653;53.106;18.046;2022-12-29T02:37:20;100146.14;;;5.21;89.44
76730;BME280;65653;53.106;18.046;2022-12-29T02:45:31;100145.39;;;5.17;89.72
76730;BME280;65653;53.106;18.046;2022-12-29T02:48:17;100142.76;;;5.19;89.82
76730;BME280;65653;53.106;18.046;2022-12-29T02:51:02;100141.19;;;5.20;89.78
76730;BME280;65653;53.106;18.046;2022-12-29T02:53:31;100137.98;;;5.21;89.52
76730;BME280;65653;53.106;18.046;2022-12-29T02:56:17;100133.46;;;5.19;89.59
76730;BME280;65653;53.106;18.046;2022-12-29T02:58:43;100137.98;;;5.19;89.65
76730;BME280;65653;53.106;18.046;2022-12-29T03:01:20;100133.36;;;5.19;89.49
76730;BME280;65653;53.106;18.046;2022-12-29T03:12:35;100132.23;;;5.23;88.89
76730;BME280;65653;53.106;18.046;2022-12-29T03:15:46;100131.63;;;5.22;89.00
76730;BME280;65653;53.106;18.046;2022-12-29T03:21:24;100133.95;;;5.22;89.22
76730;BME280;65653;53.106;18.046;2022-12-29T03:24:13;100130.41;;;5.22;89.22
76730;BME280;65653;53.106;18.046;2022-12-29T03:26:42;100129.04;;;5.23;89.16
76730;BME280;65653;53.106;18.046;2022-12-29T03:29:11;100125.80;;;5.23;89.43
76730;BME280;65653;53.106;18.046;2022-12-29T03:31:39;100124.05;;;5.21;89.70
76730;BME280;65653;53.106;18.046;2022-12-29T03:34:08;100122.27;;;5.20;89.76
76730;BME280;65653;53.106;18.046;2022-12-29T03:36:49;100125.69;;;5.21;89.85
76730;BME280;65653;53.106;18.046;2022-12-29T03:39:18;100117.23;;;5.23;89.79
76730;BME280;65653;53.106;18.046;2022-12-29T03:41:50;100112.42;;;5.23;89.92
76730;BME280;65653;53.106;18.046;2022-12-29T03:44:19;100110.93;;;5.22;90.14
76730;BME280;65653;53.106;18.046;2022-12-29T03:46:45;100119.30;;;5.22;90.31
76730;BME280;65653;53.106;18.046;2022-12-29T03:49:12;100118.82;;;5.22;90.38
76730;BME280;65653;53.106;18.046;2022-12-29T03:51:38;100116.45;;;5.21;90.31
76730;BME280;65653;53.106;18.046;2022-12-29T03:54:05;100115.43;;;5.21;90.28
76730;BME280;65653;53.106;18.046;2022-12-29T03:56:31;100115.42;;;5.22;90.04
76730;BME280;65653;53.106;18.046;2022-12-29T03:58:58;100108.89;;;5.23;90.04
76730;BME280;65653;53.106;18.046;2022-12-29T04:01:24;100107.23;;;5.23;90.08
76730;BME280;65653;53.106;18.046;2022-12-29T04:03:50;100109.45;;;5.23;90.11
76730;BME280;65653;53.106;18.046;2022-12-29T04:06:17;100107.95;;;5.25;89.92
76730;BME280;65653;53.106;18.046;2022-12-29T04:08:43;100104.48;;;5.25;89.87
76730;BME280;65653;53.106;18.046;2022-12-29T04:11:10;100098.35;;;5.24;89.94
76730;BME280;65653;53.106;18.046;2022-12-29T04:13:36;100094.98;;;5.25;89.92
76730;BME280;65653;53.106;18.046;2022-12-29T04:16:07;100086.48;;;5.27;89.96
76730;BME280;65653;53.106;18.046;2022-12-29T04:18:33;100082.80;;;5.29;89.86
76730;BME280;65653;53.106;18.046;2022-12-29T04:21:00;100083.73;;;5.30;89.82
76730;BME280;65653;53.106;18.046;2022-12-29T04:23:28;100080.76;;;5.32;89.76
76730;BME280;65653;53.106;18.046;2022-12-29T04:25:55;100079.66;;;5.32;89.65
76730;BME280;65653;53.106;18.046;2022-12-29T04:28:22;100083.45;;;5.31;89.55
76730;BME280;65653;53.106;18.046;2022-12-29T04:30:48;100073.70;;;5.31;89.63
76730;BME280;65653;53.106;18.046;2022-12-29T04:33:14;100068.51;;;5.33;89.61
76730;BME280;65653;53.106;18.046;2022-12-29T04:35:42;100067.64;;;5.34;89.61
76730;BME280;65653;53.106;18.046;2022-12-29T04:38:09;100064.88;;;5.39;89.23
76730;BME280;65653;53.106;18.046;2022-12-29T04:40:41;100059.58;;;5.42;89.18
76730;BME280;65653;53.106;18.046;2022-12-29T04:43:08;100062.91;;;5.43;88.89
76730;BME280;65653;53.106;18.046;2022-12-29T04:45:34;100059.00;;;5.45;88.57
76730;BME280;65653;53.106;18.046;2022-12-29T04:48:01;100058.88;;;5.47;88.37
76730;BME280;65653;53.106;18.046;2022-12-29T04:50:28;100059.48;;;5.51;88.14
76730;BME280;65653;53.106;18.046;2022-12-29T04:52:54;100052.30;;;5.54;87.90
76730;BME280;65653;53.106;18.046;2022-12-29T04:55:21;100057.06;;;5.56;87.74
76730;BME280;65653;53.106;18.046;2022-12-29T04:57:47;100056.39;;;5.55;88.04
76730;BME280;65653;53.106;18.046;2022-12-29T05:00:14;100051.74;;;5.56;88.05
76730;BME280;65653;53.106;18.046;2022-12-29T05:02:41;100053.98;;;5.59;87.73
76730;BME280;65653;53.106;18.046;2022-12-29T05:05:07;100057.02;;;5.62;87.60
76730;BME280;65653;53.106;18.046;2022-12-29T05:07:34;100058.71;;;5.62;87.75
76730;BME280;65653;53.106;18.046;2022-12-29T05:10:00;100057.67;;;5.63;87.74
76730;BME280;65653;53.106;18.046;2022-12-29T05:12:31;100055.44;;;5.66;87.39
76730;BME280;65653;53.106;18.046;2022-12-29T05:14:57;100055.35;;;5.68;87.35
76730;BME280;65653;53.106;18.046;2022-12-29T05:17:24;100051.89;;;5.69;86.90
76730;BME280;65653;53.106;18.046;2022-12-29T05:19:51;100060.48;;;5.69;87.07
76730;BME280;65653;53.106;18.046;2022-12-29T05:22:18;100051.61;;;5.73;86.55
76730;BME280;65653;53.106;18.046;2022-12-29T05:24:44;100048.47;;;5.76;86.70
76730;BME280;65653;53.106;18.046;2022-12-29T05:27:10;100038.25;;;5.79;86.62
76730;BME280;65653;53.106;18.046;2022-12-29T05:29:37;100032.40;;;5.82;86.24
76730;BME280;65653;53.106;18.046;2022-12-29T05:32:03;100029.36;;;5.84;86.37
76730;BME280;65653;53.106;18.046;2022-12-29T05:34:30;100028.78;;;5.83;86.47
76730;BME280;65653;53.106;18.046;2022-12-29T05:36:57;100025.59;;;5.84;86.35
76730;BME280;65653;53.106;18.046;2022-12-29T05:39:23;100021.01;;;5.87;85.96
76730;BME280;65653;53.106;18.046;2022-12-29T05:41:49;100014.04;;;5.91;85.49
76730;BME280;65653;53.106;18.046;2022-12-29T05:44:16;100010.58;;;5.91;86.14
76730;BME280;65653;53.106;18.046;2022-12-29T05:46:42;100007.02;;;5.90;85.77
76730;BME280;65653;53.106;18.046;2022-12-29T05:49:09;100006.49;;;5.93;85.57
76730;BME280;65653;53.106;18.046;2022-12-29T05:51:35;100005.77;;;5.96;85.53
76730;BME280;65653;53.106;18.046;2022-12-29T05:54:02;99998.40;;;5.97;85.38
76730;BME280;65653;53.106;18.046;2022-12-29T05:56:28;99992.55;;;5.94;85.58
76730;BME280;65653;53.106;18.046;2022-12-29T05:58:58;99990.06;;;5.94;85.61
76730;BME280;65653;53.106;18.046;2022-12-29T06:01:24;99984.98;;;5.93;85.59
76730;BME280;65653;53.106;18.046;2022-12-29T06:03:51;99985.75;;;5.93;85.21
76730;BME280;65653;53.106;18.046;2022-12-29T06:06:17;99989.09;;;5.94;85.10
76730;BME280;65653;53.106;18.046;2022-12-29T06:08:44;99992.98;;;5.94;84.80
76730;BME280;65653;53.106;18.046;2022-12-29T06:11:10;99998.67;;;5.94;84.93
76730;BME280;65653;53.106;18.046;2022-12-29T06:13:37;99995.70;;;5.98;84.73
76730;BME280;65653;53.106;18.046;2022-12-29T06:16:04;100004.45;;;6.03;84.15
76730;BME280;65653;53.106;18.046;2022-12-29T06:18:30;100015.70;;;6.05;84.35
76730;BME280;65653;53.106;18.046;2022-12-29T06:21:01;100014.98;;;6.06;83.98
76730;BME280;65653;53.106;18.046;2022-12-29T06:23:28;100006.65;;;6.09;83.95
76730;BME280;65653;53.106;18.046;2022-12-29T06:25:55;100004.08;;;6.10;83.91
76730;BME280;65653;53.106;18.046;2022-12-29T06:28:21;99992.67;;;6.11;84.19
76730;BME280;65653;53.106;18.046;2022-12-29T06:30:48;99993.45;;;6.09;84.03
76730;BME280;65653;53.106;18.046;2022-12-29T06:33:15;99993.15;;;6.09;83.95
76730;BME280;65653;53.106;18.046;2022-12-29T06:35:42;99986.86;;;6.14;83.19
76730;BME280;65653;53.106;18.046;2022-12-29T06:38:09;99993.29;;;6.20;83.03
76730;BME280;65653;53.106;18.046;2022-12-29T06:40:35;99994.19;;;6.20;83.02
76730;BME280;65653;53.106;18.046;2022-12-29T06:43:02;99997.48;;;6.18;83.34
76730;BME280;65653;53.106;18.046;2022-12-29T06:45:28;100004.66;;;6.20;83.06
76730;BME280;65653;53.106;18.046;2022-12-29T06:47:55;100006.92;;;6.25;82.73
76730;BME280;65653;53.106;18.046;2022-12-29T06:50:21;100002.42;;;6.27;82.38
76730;BME280;65653;53.106;18.046;2022-12-29T06:52:47;100003.05;;;6.28;82.25
76730;BME280;65653;53.106;18.046;2022-12-29T06:55:14;100010.27;;;6.29;82.29
76730;BME280;65653;53.106;18.046;2022-12-29T06:57:40;100007.10;;;6.33;81.54
76730;BME280;65653;53.106;18.046;2022-12-29T07:00:08;100007.55;;;6.36;81.88
76730;BME280;65653;53.106;18.046;2022-12-29T07:02:34;100004.42;;;6.37;81.02
76730;BME280;65653;53.106;18.046;2022-12-29T07:05:01;100000.15;;;6.40;81.21
76730;BME280;65653;53.106;18.046;2022-12-29T07:07:28;99999.95;;;6.42;80.98
76730;BME280;65653;53.106;18.046;2022-12-29T07:09:54;100001.64;;;6.45;80.69
76730;BME280;65653;53.106;18.046;2022-12-29T07:12:21;100008.36;;;6.45;80.93
76730;BME280;65653;53.106;18.046;2022-12-29T07:14:47;100006.05;;;6.43;81.11
76730;BME280;65653;53.106;18.046;2022-12-29T07:17:14;100013.52;;;6.45;80.98
76730;BME280;65653;53.106;18.046;2022-12-29T07:19:40;100020.02;;;6.47;80.68
76730;BME280;65653;53.106;18.046;2022-12-29T07:22:08;100014.29;;;6.49;80.43
76730;BME280;65653;53.106;18.046;2022-12-29T07:24:35;100009.75;;;6.49;80.57
76730;BME280;65653;53.106;18.046;2022-12-29T07:27:02;100010.54;;;6.51;80.55
76730;BME280;65653;53.106;18.046;2022-12-29T07:29:28;100010.14;;;6.57;80.05
76730;BME280;65653;53.106;18.046;2022-12-29T07:31:55;100019.86;;;6.64;79.88
76730;BME280;65653;53.106;18.046;2022-12-29T07:34:22;100021.67;;;6.68;79.61
76730;BME280;65653;53.106;18.046;2022-12-29T07:36:49;100021.05;;;6.70;79.41
76730;BME280;65653;53.106;18.046;2022-12-29T07:39:16;100018.91;;;6.75;79.45
76730;BME280;65653;53.106;18.046;2022-12-29T07:41:43;100002.72;;;6.79;79.60
76730;BME280;65653;53.106;18.046;2022-12-29T07:44:10;100005.20;;;6.78;79.54
76730;BME280;65653;53.106;18.046;2022-12-29T07:46:37;100002.91;;;6.76;79.68
76730;BME280;65653;53.106;18.046;2022-12-29T07:49:03;100007.48;;;6.72;79.32
76730;BME280;65653;53.106;18.046;2022-12-29T07:51:30;100005.61;;;6.69;79.62
76730;BME280;65653;53.106;18.046;2022-12-29T07:53:57;100002.08;;;6.65;80.06
76730;BME280;65653;53.106;18.046;2022-12-29T07:56:27;100005.98;;;6.62;79.87
76730;BME280;65653;53.106;18.046;2022-12-29T07:58:53;99999.21;;;6.65;79.66
76730;BME280;65653;53.106;18.046;2022-12-29T08:01:20;99992.59;;;6.69;79.97
76730;BME280;65653;53.106;18.046;2022-12-29T08:03:47;99987.48;;;6.70;79.49
76730;BME280;65653;53.106;18.046;2022-12-29T08:06:13;99983.64;;;6.74;79.34
76730;BME280;65653;53.106;18.046;2022-12-29T08:08:40;99981.05;;;6.80;79.00
76730;BME280;65653;53.106;18.046;2022-12-29T08:11:07;99983.95;;;6.93;78.72
76730;BME280;65653;53.106;18.046;2022-12-29T08:13:34;99996.78;;;7.08;77.87
76730;BME280;65653;53.106;18.046;2022-12-29T08:16:01;100004.79;;;7.18;76.90
76730;BME280;65653;53.106;18.046;2022-12-29T08:18:27;100004.19;;;7.25;76.49
76730;BME280;65653;53.106;18.046;2022-12-29T08:20:54;100001.95;;;7.26;76.23
76730;BME280;65653;53.106;18.046;2022-12-29T08:23:20;99994.44;;;7.29;76.32
76730;BME280;65653;53.106;18.046;2022-12-29T08:25:56;99990.91;;;7.35;76.25
76730;BME280;65653;53.106;18.046;2022-12-29T08:28:23;99995.89;;;7.43;76.30
76730;BME280;65653;53.106;18.046;2022-12-29T08:30:49;99994.95;;;7.59;75.41
76730;BME280;65653;53.106;18.046;2022-12-29T08:33:16;99992.11;;;7.65;74.96
76730;BME280;65653;53.106;18.046;2022-12-29T08:35:44;99994.77;;;7.55;75.77
76730;BME280;65653;53.106;18.046;2022-12-29T08:38:11;100004.38;;;7.46;76.38
76730;BME280;65653;53.106;18.046;2022-12-29T08:40:37;100004.80;;;7.47;75.76
76730;BME280;65653;53.106;18.046;2022-12-29T08:43:04;100006.59;;;7.52;75.77
76730;BME280;65653;53.106;18.046;2022-12-29T08:45:31;100008.54;;;7.54;75.78
76730;BME280;65653;53.106;18.046;2022-12-29T08:47:58;100013.52;;;7.58;75.75
76730;BME280;65653;53.106;18.046;2022-12-29T08:50:25;100018.55;;;7.65;75.67
76730;BME280;65653;53.106;18.046;2022-12-29T08:52:52;100020.80;;;7.69;75.32
76730;BME280;65653;53.106;18.046;2022-12-29T08:55:19;100013.92;;;7.69;75.40
76730;BME280;65653;53.106;18.046;2022-12-29T08:57:45;100008.73;;;7.72;75.33
76730;BME280;65653;53.106;18.046;2022-12-29T09:00:12;100008.27;;;7.76;75.28
76730;BME280;65653;53.106;18.046;2022-12-29T09:02:41;100003.65;;;7.81;74.72
76730;BME280;65653;53.106;18.046;2022-12-29T09:05:08;100000.97;;;7.88;74.67
76730;BME280;65653;53.106;18.046;2022-12-29T09:07:34;100006.32;;;7.90;74.67
76730;BME280;65653;53.106;18.046;2022-12-29T09:10:01;100009.80;;;7.91;74.64
76730;BME280;65653;53.106;18.046;2022-12-29T09:12:28;100001.29;;;7.95;74.00
76730;BME280;65653;53.106;18.046;2022-12-29T09:14:54;100001.64;;;8.06;74.12
76730;BME280;65653;53.106;18.046;2022-12-29T09:17:21;99995.67;;;8.12;73.94
76730;BME280;65653;53.106;18.046;2022-12-29T09:20:06;99997.36;;;8.12;73.84
76730;BME280;65653;53.106;18.046;2022-12-29T09:22:33;99991.74;;;8.08;74.16
76730;BME280;65653;53.106;18.046;2022-12-29T09:24:59;100000.19;;;8.07;73.96
76730;BME280;65653;53.106;18.046;2022-12-29T09:27:26;99999.70;;;8.10;73.83
76730;BME280;65653;53.106;18.046;2022-12-29T09:29:52;99994.27;;;8.09;73.64
76730;BME280;65653;53.106;18.046;2022-12-29T09:32:19;99991.75;;;8.07;73.75
76730;BME280;65653;53.106;18.046;2022-12-29T09:34:45;99990.48;;;8.05;74.20
76730;BME280;65653;53.106;18.046;2022-12-29T09:37:11;99992.88;;;8.04;74.56
76730;BME280;65653;53.106;18.046;2022-12-29T09:39:38;99995.18;;;8.05;74.47
76730;BME280;65653;53.106;18.046;2022-12-29T09:42:19;99993.02;;;8.05;74.20
76730;BME280;65653;53.106;18.046;2022-12-29T09:45:54;99990.09;;;8.05;74.23
76730;BME280;65653;53.106;18.046;2022-12-29T09:47:57;99980.58;;;8.07;74.09
76730;BME280;65653;53.106;18.046;2022-12-29T09:50:33;99980.77;;;8.12;74.15
76730;BME280;65653;53.106;18.046;2022-12-29T09:53:14;99976.73;;;8.21;73.93
76730;BME280;65653;53.106;18.046;2022-12-29T09:55:46;99970.71;;;8.28;73.52
76730;BME280;65653;53.106;18.046;2022-12-29T09:58:36;99974.76;;;8.33;73.61
76730;BME280;65653;53.106;18.046;2022-12-29T10:01:06;99972.61;;;8.34;72.97
76730;BME280;65653;53.106;18.046;2022-12-29T10:06:11;99979.10;;;8.42;73.00
76730;BME280;65653;53.106;18.046;2022-12-29T10:17:10;99963.25;;;8.55;72.14
76730;BME280;65653;53.106;18.046;2022-12-29T10:23:04;99958.13;;;8.70;71.71
76730;BME280;65653;53.106;18.046;2022-12-29T10:25:39;99956.77;;;8.68;71.74
76730;BME280;65653;53.106;18.046;2022-12-29T10:28:17;99954.85;;;8.63;71.91
76730;BME280;65653;53.106;18.046;2022-12-29T10:30:47;99956.80;;;8.58;71.93
76730;BME280;65653;53.106;18.046;2022-12-29T10:33:20;99956.08;;;8.58;71.98
76730;BME280;65653;53.106;18.046;2022-12-29T10:35:50;99954.30;;;8.57;72.59
76730;BME280;65653;53.106;18.046;2022-12-29T10:38:25;99965.91;;;8.54;72.31
76730;BME280;65653;53.106;18.046;2022-12-29T10:43:51;99952.39;;;8.54;72.64
76730;BME280;65653;53.106;18.046;2022-12-29T10:46:21;99948.82;;;8.59;72.88
76730;BME280;65653;53.106;18.046;2022-12-29T10:48:49;99949.21;;;8.65;72.28
76730;BME280;65653;53.106;18.046;2022-12-29T10:51:27;99950.05;;;8.64;72.33
76730;BME280;65653;53.106;18.046;2022-12-29T10:54:26;99952.81;;;8.63;72.90
76730;BME280;65653;53.106;18.046;2022-12-29T10:57:44;99945.77;;;8.63;72.52
76730;BME280;65653;53.106;18.046;2022-12-29T10:59:50;99947.25;;;8.66;72.77
76730;BME280;65653;53.106;18.046;2022-12-29T11:03:15;99941.77;;;8.79;72.10
76730;BME280;65653;53.106;18.046;2022-12-29T11:05:43;99937.25;;;8.98;71.27
76730;BME280;65653;53.106;18.046;2022-12-29T11:08:17;99938.96;;;9.06;70.91
76730;BME280;65653;53.106;18.046;2022-12-29T11:10:59;99938.59;;;9.01;71.05
76730;BME280;65653;53.106;18.046;2022-12-29T11:13:30;99939.05;;;8.94;71.03
76730;BME280;65653;53.106;18.046;2022-12-29T11:15:57;99933.65;;;8.99;71.15
76730;BME280;65653;53.106;18.046;2022-12-29T11:18:33;99930.30;;;8.97;70.91
76730;BME280;65653;53.106;18.046;2022-12-29T11:21:06;99924.77;;;8.93;71.20
76730;BME280;65653;53.106;18.046;2022-12-29T11:23:34;99914.42;;;8.91;71.40
76730;BME280;65653;53.106;18.046;2022-12-29T11:26:14;99909.06;;;8.94;71.25
76730;BME280;65653;53.106;18.046;2022-12-29T11:29:04;99902.52;;;8.93;71.01
76730;BME280;65653;53.106;18.046;2022-12-29T11:31:40;99903.31;;;8.95;71.26
76730;BME280;65653;53.106;18.046;2022-12-29T11:34:07;99901.58;;;9.03;71.27
76730;BME280;65653;53.106;18.046;2022-12-29T11:36:35;99897.64;;;9.12;70.66
76730;BME280;65653;53.106;18.046;2022-12-29T11:39:02;99899.33;;;9.11;70.85
76730;BME280;65653;53.106;18.046;2022-12-29T11:41:34;99893.48;;;9.31;70.38
76730;BME280;65653;53.106;18.046;2022-12-29T11:44:05;99892.13;;;9.62;69.53
76730;BME280;65653;53.106;18.046;2022-12-29T11:46:37;99884.65;;;11.56;64.78
76730;BME280;65653;53.106;18.046;2022-12-29T11:49:05;99878.79;;;13.56;58.32
76730;BME280;65653;53.106;18.046;2022-12-29T11:51:46;99873.41;;;14.83;55.32
76730;BME280;65653;53.106;18.046;2022-12-29T11:54:19;99877.52;;;15.70;52.41
76730;BME280;65653;53.106;18.046;2022-12-29T11:56:48;99869.05;;;16.17;50.28
76730;BME280;65653;53.106;18.046;2022-12-29T12:01:58;99866.54;;;17.06;48.67
76730;BME280;65653;53.106;18.046;2022-12-29T12:04:28;99872.84;;;16.36;49.82
76730;BME280;65653;53.106;18.046;2022-12-29T12:07:08;99868.81;;;16.56;49.73
76730;BME280;65653;53.106;18.046;2022-12-29T12:09:45;99857.59;;;17.06;48.25
76730;BME280;65653;53.106;18.046;2022-12-29T12:12:24;99857.05;;;17.07;46.85
76730;BME280;65653;53.106;18.046;2022-12-29T12:14:56;99861.54;;;16.14;48.68
76730;BME280;65653;53.106;18.046;2022-12-29T12:17:32;99850.60;;;15.03;51.64
76730;BME280;65653;53.106;18.046;2022-12-29T12:20:14;99859.13;;;13.83;55.04
76730;BME280;65653;53.106;18.046;2022-12-29T12:28:25;99871.56;;;11.84;60.45
76730;BME280;65653;53.106;18.046;2022-12-29T12:30:56;99878.66;;;11.40;61.79
76730;BME280;65653;53.106;18.046;2022-12-29T12:33:37;99873.50;;;11.09;62.88
76730;BME280;65653;53.106;18.046;2022-12-29T12:36:17;99876.08;;;10.95;63.69
76730;BME280;65653;53.106;18.046;2022-12-29T12:39:06;99872.55;;;10.81;64.33
76730;BME280;65653;53.106;18.046;2022-12-29T12:47:41;99873.38;;;10.42;65.79
76730;BME280;65653;53.106;18.046;2022-12-29T12:50:11;99859.73;;;10.39;65.95
76730;BME280;65653;53.106;18.046;2022-12-29T12:55:46;99864.19;;;10.49;65.98
76730;BME280;65653;53.106;18.046;2022-12-29T13:03:48;99850.68;;;10.68;65.30
76730;BME280;65653;53.106;18.046;2022-12-29T13:06:47;99849.71;;;10.57;65.69
76730;BME280;65653;53.106;18.046;2022-12-29T13:12:24;99853.50;;;10.35;66.46
76730;BME280;65653;53.106;18.046;2022-12-29T13:15:13;99856.63;;;10.28;67.00
76730;BME280;65653;53.106;18.046;2022-12-29T13:20:43;99865.86;;;10.17;67.39
76730;BME280;65653;53.106;18.046;2022-12-29T13:23:36;99862.55;;;10.16;67.41
76730;BME280;65653;53.106;18.046;2022-12-29T13:26:19;99867.98;;;10.12;67.62
76730;BME280;65653;53.106;18.046;2022-12-29T13:28:55;99869.90;;;10.07;67.68
76730;BME280;65653;53.106;18.046;2022-12-29T13:31:35;99876.98;;;10.04;67.82
76730;BME280;65653;53.106;18.046;2022-12-29T13:35:23;99880.45;;;9.99;68.16
76730;BME280;65653;53.106;18.046;2022-12-29T13:37:18;99880.82;;;9.96;68.33
76730;BME280;65653;53.106;18.046;2022-12-29T13:39:51;99875.92;;;9.97;68.18
76730;BME280;65653;53.106;18.046;2022-12-29T13:42:19;99882.41;;;9.93;68.39
76730;BME280;65653;53.106;18.046;2022-12-29T13:44:51;99878.06;;;9.86;68.56
76730;BME280;65653;53.106;18.046;2022-12-29T13:47:28;99877.20;;;9.79;68.87
76730;BME280;65653;53.106;18.046;2022-12-29T13:50:00;99874.55;;;9.72;69.23
76730;BME280;65653;53.106;18.046;2022-12-29T13:52:51;99879.64;;;9.68;69.34
76730;BME280;65653;53.106;18.046;2022-12-29T14:01:00;99888.45;;;9.58;69.70
76730;BME280;65653;53.106;18.046;2022-12-29T14:03:46;99894.25;;;9.54;70.06
76730;BME280;65653;53.106;18.046;2022-12-29T14:06:27;99888.79;;;9.47;70.40
76730;BME280;65653;53.106;18.046;2022-12-29T14:08:57;99889.05;;;9.42;70.67
76730;BME280;65653;53.106;18.046;2022-12-29T14:11:40;99891.38;;;9.36;70.78
76730;BME280;65653;53.106;18.046;2022-12-29T14:14:17;99898.57;;;9.33;71.07
76730;BME280;65653;53.106;18.046;2022-12-29T14:16:45;99898.29;;;9.23;71.49
76730;BME280;65653;53.106;18.046;2022-12-29T14:19:16;99899.25;;;9.16;71.73
76730;BME280;65653;53.106;18.046;2022-12-29T14:21:52;99892.13;;;9.09;71.98
76730;BME280;65653;53.106;18.046;2022-12-29T14:34:48;99898.79;;;8.81;73.22
76730;BME280;65653;53.106;18.046;2022-12-29T14:37:29;99897.30;;;8.84;73.11
76730;BME280;65653;53.106;18.046;2022-12-29T14:40:16;99897.52;;;8.86;73.22
76730;BME280;65653;53.106;18.046;2022-12-29T14:42:49;99892.55;;;8.83;73.03
76730;BME280;65653;53.106;18.046;2022-12-29T14:47:49;99894.88;;;8.85;73.32
76730;BME280;65653;53.106;18.046;2022-12-29T14:50:38;99890.59;;;8.89;73.23
76730;BME280;65653;53.106;18.046;2022-12-29T14:53:09;99889.09;;;8.93;73.14